Flight Track Log - Related Links

Times and Time Zones

All times are in EDT time to prevent confusion due to time zone crossing. See the TCF3461 flight status page for this flight to view local times or setup timezone preferences in your user account.

Time Position Orientation Groundspeed Altitude Reporting Facility
EDT Latitude Longitude Course Direction KTS MPH feet Rate Location/Type
Tue 08:34:20 PM 41.9500 -87.9667 255° West 184 212 3,200  Level Chicago TRACON
Tue 08:35:20 PM 41.9333 -88.0500 255° West 253 291 5,000 900 Climbing Chicago TRACON
Tue 08:36:20 PM 41.9333 -88.1500 270° West 254 292 5,000 1,345 Level Chicago TRACON
Tue 08:37:16 PM 41.9328 -88.2375 270° West 257 296 7,600 3,000 Climbing Chicago Center
Tue 08:38:18 PM 41.9300 -88.3386 268° West 270 311 10,900 2,516 Climbing Chicago Center
Tue 08:39:20 PM 41.9261 -88.4522 267° West 285 328 12,800 1,597 Climbing Chicago Center
Tue 08:40:22 PM 41.9208 -88.5858 267° West 360 414 14,200 1,839 Climbing Chicago Center
Tue 08:41:24 PM 41.9169 -88.7336 268° West 366 421 16,600 2,081 Climbing Chicago Center
Tue 08:42:26 PM 41.9119 -88.8550 267° West 369 425 18,500 1,935 Climbing Chicago Center
Tue 08:43:28 PM 41.9058 -89.0286 267° West 387 445 20,600 1,790 Climbing Chicago Center
Tue 08:44:30 PM 41.9008 -89.1775 267° West 396 456 22,200 1,536 Climbing Chicago Center
Tue 08:45:33 PM 41.8886 -89.3328 264° West 409 471 23,800 1,392 Climbing Chicago Center
Tue 08:46:35 PM 41.8750 -89.4836 263° West 411 473 25,100 1,065 Climbing Chicago Center
Tue 08:47:37 PM 41.8581 -89.6397 262° West 417 480 26,000 435 Climbing Chicago Center
Tue 08:48:39 PM 41.8436 -89.7983 263° West 429 494 26,000  Level Chicago Center
Tue 08:49:41 PM 41.8356 -89.9625 266° West 429 494 26,000  Level Chicago Center
Tue 08:50:43 PM 41.8233 -90.1544 265° West 429 494 26,000  Level Chicago Center
Tue 08:51:45 PM 41.8136 -90.3119 265° West 427 491 26,000  Level Chicago Center
Tue 08:52:47 PM 41.8025 -90.4719 265° West 428 493 26,000  Level Chicago Center
Tue 08:53:49 PM 41.7883 -90.6356 263° West 439 505 26,000  Level Chicago Center
Tue 08:54:51 PM 41.7767 -90.7936 264° West 431 496 26,000  Level Chicago Center
Tue 08:55:53 PM 41.7658 -90.9533 265° West 430 495 26,000  Level Chicago Center
Tue 08:56:55 PM 41.7517 -91.1444 264° West 430 495 26,000 -48 Level Chicago Center
Tue 08:57:57 PM 41.7394 -91.3031 264° West 430 495 25,900 -629 Descending Chicago Center
Tue 08:58:59 PM 41.7272 -91.4617 264° West 430 495 24,700 -919 Descending Chicago Center
Tue 09:00:01 PM 41.7161 -91.6175 265° West 426 490 24,000 -339 Descending Chicago Center
Tue 09:01:03 PM 41.7028 -91.7703 263° West 418 481 24,000  Level Chicago Center
Tue 09:02:05 PM 41.6906 -91.9250 264° West 418 481 24,000 -720 Level Chicago Center
Tue 09:03:08 PM 41.6786 -92.0803 264° West 418 481 22,500 -2,208 Descending Chicago Center
Tue 09:04:10 PM 41.6636 -92.2586 264° West 410 472 19,400 -2,793 Descending Chicago Center
Tue 09:06:02 PM 41.6411 -92.5147 263° West 381 438 14,400 -2,655 Descending Minneapolis Center
Tue 09:07:04 PM 41.6308 -92.6392 264° West 357 411 11,700 -2,226 Descending Minneapolis Center
Tue 09:08:06 PM 41.6250 -92.7494 266° West 312 359 9,800 -2,400 Descending Minneapolis Center
Tue 09:08:49 PM 41.6286 -92.8172 274° West 249 287 7,500 -3,097 Descending Minneapolis Center
Tue 09:09:08 PM 41.6206 -92.8544 254° West 265 305 6,600 -2,361 Descending Minneapolis Center
Tue 09:09:50 PM 41.6244 -92.9144 275° West 261 300 5,100 -1,935 Descending Minneapolis Center
Tue 09:10:10 PM 41.6161 -92.9517 253° West 264 304 4,600 -1,100 Descending Minneapolis Center
Tue 09:10:50 PM 41.6200 -93.0092 275° West 262 302 4,000 -571 Descending Minneapolis Center
Tue 09:11:13 PM 41.6114 -93.0542 256° West 261 300 4,000  Level Minneapolis Center
Tue 09:11:51 PM 41.6156 -93.1039 276° West 257 296 4,000  Level Minneapolis Center
Tue 09:12:15 PM 41.6069 -93.1497 256° West 261 300 4,000  Level Minneapolis Center
Tue 09:12:51 PM 41.6108 -93.2011 276° West 258 297 4,000  Level Minneapolis Center
Tue 09:13:17 PM 41.6025 -93.2525 258° West 260 299 4,000 -295 Level Minneapolis Center
Tue 09:13:52 PM 41.6061 -93.2958 276° West 258 297 3,700 -774 Descending Minneapolis Center
Tue 09:14:19 PM 41.5978 -93.3472 258° West 259 298 3,200 -689 Descending Minneapolis Center
Tue 09:14:53 PM 41.6017 -93.3958 276° West 253 291 3,000 -194 Descending Minneapolis Center
Tue 09:15:21 PM 41.5931 -93.4439 257° West 245 282 3,000  Level Minneapolis Center
Tue 09:15:53 PM 41.5967 -93.4819 277° West 234 269 3,000 -290 Level Minneapolis Center
Tue 09:16:23 PM 41.5886 -93.5286 257° West 233 268 2,700 -492 Descending Minneapolis Center
Tue 09:16:54 PM 41.5892 -93.5572 271° West 200 230 2,500 -581 Descending Minneapolis Center
Tue 09:17:25 PM 41.5694 -93.5944 235° Southwest 182 209 2,100 -787 Descending Minneapolis Center
Tue 09:17:55 PM 41.5650 -93.6050 241° Southwest 133 153 1,700 -774 Descending Minneapolis Center
Tue 09:18:27 PM 41.5464 -93.6353 231° Southwest 145 167 1,300 -442 Descending Minneapolis Center
Tue 09:19:30 PM 41.5292 -93.6669 234° Southwest 109 125 1,000 -286 Descending Minneapolis Center

Login

Don't have an account? Register now (free) for customized features, flight alerts, and more!